Time;durP1;ratioP1;P1;durP2;ratioP2;P2;SDS_P1;SDS_P2;PMS_P1;PMS_P2;Temp;Humidity;BMP_temperature;BMP_pressure;BME280_temperature;BME280_humidity;BME280_pressure;Samples;Min_cycle;Max_cycle;Signal;HPM_P1;HPM_P2
2022/05/07 00:02:08;;;;;;;26.95;17.38;;;12.30;68.00;;;;;;5061290;28;20441;-75
2022/05/07 00:04:38;;;;;;;29.50;19.20;;;12.30;67.00;;;;;;5051889;28;20402;-75
2022/05/07 00:07:07;;;;;;;28.63;17.67;;;12.20;66.80;;;;;;5061673;28;20475;-75
2022/05/07 00:09:33;;;;;;;30.40;17.88;;;12.10;67.70;;;;;;5057586;28;20459;-75
2022/05/07 00:11:59;;;;;;;29.02;19.33;;;12.10;68.80;;;;;;5062247;28;20399;-76
2022/05/07 00:14:25;;;;;;;26.10;17.73;;;12.20;68.60;;;;;;5064278;28;20437;-75
2022/05/07 00:19:35;;;;;;;28.27;18.40;;;12.00;68.90;;;;;;5052429;28;20437;-75
2022/05/07 00:22:02;;;;;;;31.30;18.53;;;11.90;70.40;;;;;;5059646;28;20384;-76
2022/05/07 00:24:27;;;;;;;28.98;18.80;;;11.80;70.70;;;;;;5063910;28;20425;-75
2022/05/07 00:26:54;;;;;;;28.48;19.30;;;11.80;71.20;;;;;;5060199;28;20433;-75
2022/05/07 00:29:19;;;;;;;32.37;20.07;;;11.70;72.00;;;;;;5060938;28;20949;-76
2022/05/07 00:31:45;;;;;;;36.30;19.80;;;11.70;72.90;;;;;;5057337;28;20480;-74
2022/05/07 00:34:11;;;;;;;32.50;19.53;;;11.90;72.80;;;;;;5063123;28;20428;-75
2022/05/07 00:36:36;;;;;;;34.60;20.20;;;11.90;70.60;;;;;;5057184;28;20421;-75
2022/05/07 00:39:02;;;;;;;29.20;20.10;;;11.80;70.80;;;;;;5055651;28;20419;-75
2022/05/07 00:41:28;;;;;;;32.67;19.00;;;11.70;71.40;;;;;;5060199;28;20753;-75
2022/05/07 00:43:54;;;;;;;31.58;20.10;;;11.60;72.80;;;;;;5052077;28;20397;-75
2022/05/07 00:46:24;;;;;;;33.07;20.30;;;11.60;73.60;;;;;;5053782;28;20883;-75
2022/05/07 00:48:49;;;;;;;31.50;21.60;;;11.60;74.00;;;;;;5052327;28;20401;-74
2022/05/07 00:51:33;;;;;;;34.95;19.98;;;11.60;74.80;;;;;;5054444;28;20588;-77
2022/05/07 00:54:00;;;;;;;32.72;21.42;;;11.60;74.40;;;;;;5067372;28;20969;-76
2022/05/07 00:56:26;;;;;;;38.92;21.83;;;11.60;74.40;;;;;;5054602;28;20403;-74
2022/05/07 00:58:52;;;;;;;28.83;21.07;;;11.70;73.50;;;;;;5063498;28;20448;-75
2022/05/07 01:01:17;;;;;;;34.57;21.33;;;11.70;74.00;;;;;;5063866;28;20396;-75
2022/05/07 01:03:45;;;;;;;30.60;20.40;;;11.60;74.80;;;;;;5053591;28;20758;-76
2022/05/07 01:06:11;;;;;;;31.45;19.63;;;11.60;75.60;;;;;;5055052;28;20397;-75
2022/05/07 01:08:37;;;;;;;32.95;21.20;;;11.80;74.70;;;;;;5054114;28;20451;-74
2022/05/07 01:11:03;;;;;;;34.67;22.45;;;11.70;73.30;;;;;;5053833;28;20809;-75
2022/05/07 01:13:30;;;;;;;34.85;21.60;;;11.70;73.60;;;;;;5066236;28;20448;-76
2022/05/07 01:15:57;;;;;;;30.17;20.15;;;11.60;75.20;;;;;;5068833;28;20418;-75
2022/05/07 01:18:23;;;;;;;34.20;20.60;;;11.60;75.70;;;;;;5061048;28;20399;-76
2022/05/07 01:20:48;;;;;;;32.60;21.90;;;11.50;76.60;;;;;;5056640;28;20390;-76
2022/05/07 01:23:15;;;;;;;34.47;22.10;;;11.50;77.00;;;;;;5054134;28;20473;-76
2022/05/07 01:25:41;;;;;;;32.83;21.08;;;11.40;76.90;;;;;;5053841;28;20397;-75
2022/05/07 01:28:06;;;;;;;36.65;22.75;;;11.40;77.60;;;;;;5053900;28;20389;-76
2022/05/07 01:30:34;;;;;;;33.70;21.45;;;11.90;71.60;;;;;;5054469;28;20434;-75
2022/05/07 01:32:59;;;;;;;38.38;24.20;;;12.10;66.70;;;;;;5052830;28;20455;-76
2022/05/07 01:35:25;;;;;;;34.47;23.17;;;12.00;65.40;;;;;;5066349;28;20808;-76
2022/05/07 01:37:51;;;;;;;34.50;23.60;;;11.80;67.30;;;;;;5068174;28;20391;-75
2022/05/07 01:40:17;;;;;;;41.30;24.00;;;11.60;69.30;;;;;;5058640;28;20448;-76
2022/05/07 01:42:42;;;;;;;39.15;23.90;;;11.60;71.50;;;;;;5052839;28;20413;-76
2022/05/07 01:45:08;;;;;;;38.70;23.52;;;11.60;72.30;;;;;;5053612;28;20400;-76
2022/05/07 01:50:22;;;;;;;35.83;24.40;;;11.60;73.00;;;;;;5059879;28;20756;-75
2022/05/07 01:52:48;;;;;;;38.13;24.90;;;11.70;69.70;;;;;;5058899;28;20405;-75
2022/05/07 01:55:13;;;;;;;39.00;24.80;;;11.60;70.50;;;;;;5053375;28;20441;-75
2022/05/07 01:57:39;;;;;;;40.93;25.20;;;11.60;71.60;;;;;;5055805;28;20454;-75
2022/05/07 02:00:05;;;;;;;38.90;25.47;;;11.50;72.60;;;;;;5051752;28;20429;-76
2022/05/07 02:02:31;;;;;;;40.92;24.30;;;11.50;73.50;;;;;;5065832;28;20390;-75
2022/05/07 02:04:56;;;;;;;43.70;26.70;;;11.40;73.50;;;;;;5055850;28;20408;-75
2022/05/07 02:07:22;;;;;;;40.40;27.70;;;11.40;73.10;;;;;;5053679;28;20484;-75
2022/05/07 02:09:47;;;;;;;42.10;27.20;;;11.40;73.10;;;;;;5052605;28;20440;-75
2022/05/07 02:12:13;;;;;;;42.27;28.20;;;11.40;72.80;;;;;;5053153;28;20739;-76
2022/05/07 02:14:38;;;;;;;40.40;27.80;;;11.50;73.70;;;;;;5053117;28;20450;-75
2022/05/07 02:17:04;;;;;;;38.72;26.70;;;11.50;72.20;;;;;;5058738;28;20760;-75
2022/05/07 02:19:30;;;;;;;41.55;27.58;;;11.50;70.50;;;;;;5056668;28;20399;-75
2022/05/07 02:21:55;;;;;;;42.45;28.60;;;11.60;68.50;;;;;;5052379;28;20476;-75
2022/05/07 02:24:21;;;;;;;41.13;28.27;;;11.50;68.50;;;;;;5053813;28;20392;-75
2022/05/07 02:26:46;;;;;;;45.83;30.67;;;11.40;69.40;;;;;;5052868;28;20400;-75
2022/05/07 02:29:14;;;;;;;45.60;30.50;;;11.50;68.40;;;;;;5052945;28;20451;-75
2022/05/07 02:31:40;;;;;;;48.05;31.20;;;11.50;67.50;;;;;;5052779;28;20397;-75
2022/05/07 02:34:05;;;;;;;46.23;30.07;;;11.60;67.00;;;;;;5056254;28;20410;-77
2022/05/07 02:36:32;;;;;;;44.70;29.00;;;11.60;67.00;;;;;;5055932;28;20408;-75
2022/05/07 02:38:58;;;;;;;49.10;30.73;;;11.60;66.60;;;;;;5068179;28;20394;-75
2022/05/07 02:44:08;;;;;;;46.58;29.75;;;11.60;66.20;;;;;;5052348;28;20440;-76
2022/05/07 02:46:35;;;;;;;51.87;31.67;;;11.80;64.50;;;;;;5053602;28;20395;-76
2022/05/07 02:49:01;;;;;;;50.45;30.92;;;11.80;63.10;;;;;;5050885;28;20420;-76
2022/05/07 02:51:26;;;;;;;47.67;30.70;;;11.80;63.60;;;;;;5053099;28;20680;-76
2022/05/07 02:53:52;;;;;;;50.17;31.90;;;11.70;64.10;;;;;;5071036;28;20453;-75
2022/05/07 02:56:17;;;;;;;49.23;32.80;;;11.70;64.00;;;;;;5057225;28;20413;-75
2022/05/07 02:58:43;;;;;;;45.50;30.60;;;11.70;64.40;;;;;;5060344;28;20479;-76
2022/05/07 03:01:08;;;;;;;47.83;31.58;;;11.70;65.70;;;;;;5066731;28;20403;-76
2022/05/07 03:03:34;;;;;;;43.28;31.20;;;11.80;63.40;;;;;;5065705;28;20945;-75
2022/05/07 03:06:00;;;;;;;52.63;32.38;;;11.70;64.00;;;;;;5056884;28;20393;-76
2022/05/07 03:08:26;;;;;;;52.97;33.75;;;11.70;64.80;;;;;;5055296;28;20397;-76
2022/05/07 03:10:52;;;;;;;46.27;31.53;;;11.60;64.50;;;;;;5055842;28;20404;-76
2022/05/07 03:13:18;;;;;;;53.00;32.93;;;11.60;64.50;;;;;;5056129;28;20408;-75
2022/05/07 03:15:44;;;;;;;50.78;32.30;;;11.70;64.10;;;;;;5060451;28;20413;-75
2022/05/07 03:18:10;;;;;;;49.97;32.95;;;11.70;64.10;;;;;;5055714;28;20482;-75
2022/05/07 03:20:37;;;;;;;48.33;32.22;;;11.60;64.20;;;;;;5057152;28;20411;-75
2022/05/07 03:23:02;;;;;;;48.40;32.40;;;11.60;64.50;;;;;;5055401;28;20393;-76
2022/05/07 03:25:28;;;;;;;48.20;33.37;;;11.60;65.20;;;;;;5056662;28;20396;-75
2022/05/07 03:27:53;;;;;;;48.13;32.27;;;11.60;64.30;;;;;;5056681;28;20488;-75
2022/05/07 03:30:19;;;;;;;57.75;34.10;;;11.60;63.90;;;;;;5058132;28;20400;-75
2022/05/07 03:32:45;;;;;;;52.40;33.63;;;11.60;63.90;;;;;;5058847;28;20435;-75
2022/05/07 03:35:10;;;;;;;53.17;35.20;;;11.60;64.00;;;;;;5059081;28;20757;-74
2022/05/07 03:37:36;;;;;;;49.80;34.90;;;11.60;64.80;;;;;;5068615;28;20430;-74
2022/05/07 03:40:01;;;;;;;47.58;33.75;;;11.60;65.50;;;;;;5057455;28;20408;-75
2022/05/07 03:42:31;;;;;;;51.97;35.22;;;11.60;65.00;;;;;;5056964;28;20475;-76
2022/05/07 03:44:57;;;;;;;52.15;35.17;;;11.70;64.30;;;;;;5055554;28;20397;-75
2022/05/07 03:47:22;;;;;;;54.15;34.78;;;11.60;64.20;;;;;;5052710;28;20389;-75
2022/05/07 03:49:48;;;;;;;52.03;34.83;;;11.60;64.50;;;;;;5052803;28;20393;-76
2022/05/07 03:54:57;;;;;;;53.95;36.95;;;11.60;65.20;;;;;;5060133;28;20422;-75
2022/05/07 03:57:23;;;;;;;52.13;35.93;;;11.60;65.40;;;;;;5064019;28;20390;-75
2022/05/07 03:59:48;;;;;;;52.17;36.77;;;11.50;66.20;;;;;;5055051;28;20396;-75
2022/05/07 04:02:14;;;;;;;55.93;36.83;;;11.50;65.80;;;;;;5054517;28;20389;-76
2022/05/07 04:04:39;;;;;;;52.60;36.80;;;11.50;66.50;;;;;;5057720;28;20872;-75
2022/05/07 04:07:05;;;;;;;53.40;36.38;;;11.50;66.40;;;;;;5069707;28;20384;-75
2022/05/07 04:09:30;;;;;;;52.38;36.85;;;11.50;66.10;;;;;;5068115;28;20384;-75
2022/05/07 04:11:56;;;;;;;50.40;36.03;;;11.60;66.00;;;;;;5062399;28;20405;-75
2022/05/07 04:14:22;;;;;;;55.70;35.73;;;11.70;65.20;;;;;;5055608;28;20390;-75
2022/05/07 04:16:48;;;;;;;53.95;36.58;;;11.60;65.30;;;;;;5060455;28;20393;-76
2022/05/07 04:19:13;;;;;;;54.35;36.67;;;11.60;66.00;;;;;;5061019;28;20851;-75
2022/05/07 04:21:39;;;;;;;48.53;35.67;;;11.60;65.30;;;;;;5060123;28;20427;-74
2022/05/07 04:24:06;;;;;;;52.40;38.05;;;11.60;64.80;;;;;;5063458;28;20388;-75
2022/05/07 04:26:31;;;;;;;56.55;37.92;;;11.60;64.70;;;;;;5062965;28;20397;-76
2022/05/07 04:28:57;;;;;;;52.88;36.97;;;11.60;64.50;;;;;;5063294;28;20399;-75
2022/05/07 04:31:22;;;;;;;60.37;38.67;;;11.70;64.20;;;;;;5058433;28;20393;-75
2022/05/07 04:33:48;;;;;;;52.53;36.93;;;11.80;64.00;;;;;;5054724;28;20393;-75
2022/05/07 04:36:13;;;;;;;54.30;38.37;;;11.80;64.00;;;;;;5054569;28;20436;-76
2022/05/07 04:38:39;;;;;;;55.58;37.47;;;11.80;63.30;;;;;;5055321;28;20392;-75
2022/05/07 04:41:04;;;;;;;54.35;37.78;;;11.80;61.90;;;;;;5057363;28;20380;-72
2022/05/07 04:43:30;;;;;;;57.03;38.00;;;11.90;62.00;;;;;;5055217;28;20393;-74
2022/05/07 04:45:56;;;;;;;58.15;39.45;;;12.00;61.30;;;;;;5060059;28;20901;-72
2022/05/07 04:48:21;;;;;;;55.00;38.00;;;12.00;60.10;;;;;;5060402;28;20407;-73
2022/05/07 04:50:47;;;;;;;62.00;38.70;;;12.00;59.30;;;;;;5058988;28;20398;-73
2022/05/07 04:53:13;;;;;;;58.50;38.20;;;12.10;59.00;;;;;;5061619;28;20448;-74
2022/05/07 04:55:38;;;;;;;58.67;38.10;;;12.10;58.10;;;;;;5056141;28;20423;-74
2022/05/07 04:58:04;;;;;;;57.47;38.53;;;12.10;58.00;;;;;;5059501;28;20407;-73
2022/05/07 05:00:29;;;;;;;52.60;37.30;;;12.20;57.70;;;;;;5058142;28;20472;-73
2022/05/07 05:02:55;;;;;;;54.87;37.50;;;12.20;57.30;;;;;;5057243;28;20931;-73
2022/05/07 05:05:21;;;;;;;55.38;38.25;;;12.30;56.90;;;;;;5056607;28;20389;-73
2022/05/07 05:07:46;;;;;;;55.58;37.85;;;12.30;56.50;;;;;;5051898;28;20423;-74
2022/05/07 05:10:12;;;;;;;59.60;38.40;;;12.30;56.40;;;;;;5053443;28;20451;-74
2022/05/07 05:12:37;;;;;;;51.50;37.00;;;12.40;55.80;;;;;;5075403;28;20396;-74
2022/05/07 05:15:04;;;;;;;50.00;36.77;;;12.40;55.40;;;;;;5061483;28;20763;-74
2022/05/07 05:17:31;;;;;;;53.03;38.30;;;12.50;54.90;;;;;;5057216;28;20442;-74
2022/05/07 05:19:57;;;;;;;53.20;39.00;;;12.60;55.00;;;;;;5072506;28;20393;-73
2022/05/07 05:22:22;;;;;;;60.00;39.70;;;12.60;55.10;;;;;;5072200;28;20396;-73
2022/05/07 05:24:48;;;;;;;57.97;39.83;;;12.60;55.00;;;;;;5067441;28;20432;-74
2022/05/07 05:27:14;;;;;;;52.90;38.43;;;12.70;54.40;;;;;;5053246;28;20484;-74
2022/05/07 05:29:41;;;;;;;58.63;39.60;;;12.80;53.90;;;;;;5057282;28;20426;-74
2022/05/07 05:32:07;;;;;;;54.72;39.88;;;12.90;53.80;;;;;;5056997;28;20401;-74
2022/05/07 05:34:32;;;;;;;54.83;40.00;;;13.00;53.00;;;;;;5055980;28;20419;-74
2022/05/07 05:36:58;;;;;;;57.03;38.85;;;13.00;53.20;;;;;;5065253;28;20391;-74
2022/05/07 05:39:24;;;;;;;51.28;38.42;;;13.20;51.00;;;;;;5061909;28;20415;-75
2022/05/07 05:41:49;;;;;;;53.75;39.10;;;13.30;50.20;;;;;;5063178;28;20787;-74
2022/05/07 05:44:15;;;;;;;54.38;38.80;;;13.30;49.40;;;;;;5061600;28;20389;-73
2022/05/07 05:46:40;;;;;;;56.27;39.47;;;13.40;48.80;;;;;;5063144;28;20395;-75
2022/05/07 05:49:06;;;;;;;55.20;39.40;;;13.40;48.60;;;;;;5053667;28;20496;-74
2022/05/07 05:51:31;;;;;;;53.80;38.63;;;13.50;48.70;;;;;;5059920;28;20483;-74
2022/05/07 05:53:57;;;;;;;51.60;37.97;;;13.60;47.50;;;;;;5051049;28;20405;-73
2022/05/07 05:56:23;;;;;;;51.75;37.42;;;13.70;47.40;;;;;;5060872;28;20412;-75
2022/05/07 05:58:48;;;;;;;56.05;38.63;;;13.80;45.50;;;;;;5054724;28;20925;-74
2022/05/07 06:01:14;;;;;;;58.80;39.73;;;14.00;45.00;;;;;;5055232;28;20393;-74
2022/05/07 06:03:39;;;;;;;53.20;37.50;;;14.10;44.00;;;;;;5066681;28;20813;-74
2022/05/07 06:06:05;;;;;;;59.40;39.37;;;14.20;43.00;;;;;;5060870;28;20458;-74
2022/05/07 06:08:31;;;;;;;54.22;38.63;;;14.30;42.20;;;;;;5050916;28;20424;-72
2022/05/07 06:10:57;;;;;;;51.72;38.10;;;14.50;42.50;;;;;;5060911;28;20400;-72
2022/05/07 06:13:24;;;;;;;52.33;37.22;;;14.60;41.20;;;;;;5069900;28;20396;-73
2022/05/07 06:15:51;;;;;;;57.10;39.42;;;14.70;41.00;;;;;;5069677;28;20414;-74
2022/05/07 06:18:20;;;;;;;56.03;38.83;;;14.90;39.40;;;;;;5054772;28;20747;-73
2022/05/07 06:20:46;;;;;;;50.58;37.80;;;15.00;39.00;;;;;;5053848;28;20387;-74
2022/05/07 06:23:11;;;;;;;55.03;38.85;;;15.20;38.40;;;;;;5061937;28;20390;-74
2022/05/07 06:28:22;;;;;;;54.65;38.20;;;15.30;37.70;;;;;;5052874;28;20443;-74
2022/05/07 06:30:48;;;;;;;54.10;38.03;;;15.40;37.40;;;;;;5067776;28;20814;-73
2022/05/07 06:33:14;;;;;;;54.10;38.42;;;15.50;37.30;;;;;;5058173;28;20451;-74
2022/05/07 06:35:40;;;;;;;50.67;37.77;;;15.50;36.80;;;;;;5051073;28;20405;-74
2022/05/07 06:38:05;;;;;;;54.13;37.50;;;15.60;36.10;;;;;;5060791;28;20406;-74
2022/05/07 06:40:31;;;;;;;51.23;36.87;;;15.60;36.00;;;;;;5068671;28;20396;-75
2022/05/07 06:42:57;;;;;;;55.72;37.25;;;15.70;35.70;;;;;;5063128;28;20764;-74
2022/05/07 06:45:22;;;;;;;53.80;38.63;;;15.70;35.50;;;;;;5060480;28;20487;-76
2022/05/07 06:47:48;;;;;;;49.45;35.63;;;15.80;34.90;;;;;;5056882;28;20397;-74
2022/05/07 06:50:13;;;;;;;54.87;38.60;;;15.90;34.80;;;;;;5060226;28;20393;-71
2022/05/07 06:52:45;;;;;;;49.27;35.43;;;16.20;34.60;;;;;;5071941;28;20478;-76
2022/05/07 06:55:15;;;;;;;51.60;36.47;;;16.30;33.70;;;;;;5060786;28;20405;-75
2022/05/07 06:57:42;;;;;;;52.65;35.95;;;16.50;33.20;;;;;;5058191;28;20421;-76
2022/05/07 07:00:10;;;;;;;52.13;34.87;;;16.70;32.00;;;;;;5073658;28;20478;-76
2022/05/07 07:02:36;;;;;;;49.17;35.65;;;16.80;31.70;;;;;;5066554;28;20399;-76
2022/05/07 07:05:03;;;;;;;44.55;33.88;;;16.90;30.60;;;;;;5061019;28;20880;-76
2022/05/07 07:07:29;;;;;;;46.00;33.88;;;16.90;30.10;;;;;;5067330;28;20441;-76
2022/05/07 07:09:55;;;;;;;50.17;35.00;;;17.30;30.20;;;;;;5066656;28;21019;-76
2022/05/07 07:12:21;;;;;;;45.83;33.38;;;17.40;29.60;;;;;;5075373;28;20543;-75
2022/05/07 07:14:48;;;;;;;49.17;34.50;;;17.40;28.80;;;;;;5061913;28;20449;-73
2022/05/07 07:17:16;;;;;;;46.17;34.10;;;17.70;28.50;;;;;;5055942;28;20391;-72
2022/05/07 07:19:42;;;;;;;47.50;34.45;;;17.70;28.00;;;;;;5077736;28;20416;-74
2022/05/07 07:22:08;;;;;;;48.20;34.35;;;17.60;27.50;;;;;;5078696;28;20415;-77
2022/05/07 07:24:33;;;;;;;46.55;34.20;;;17.60;27.80;;;;;;5075023;28;20385;-74
2022/05/07 07:26:59;;;;;;;47.58;35.40;;;17.60;27.70;;;;;;5070184;28;20384;-74
2022/05/07 07:29:25;;;;;;;49.57;35.40;;;17.70;27.70;;;;;;5066439;28;20404;-76
2022/05/07 07:31:51;;;;;;;50.53;34.90;;;17.80;27.60;;;;;;5054144;28;20475;-76
2022/05/07 07:34:17;;;;;;;48.78;34.83;;;18.00;26.80;;;;;;5055430;28;20870;-76
2022/05/07 07:36:45;;;;;;;47.45;32.75;;;18.10;26.00;;;;;;5060534;28;20409;-76
2022/05/07 07:39:11;;;;;;;46.33;32.75;;;18.30;25.80;;;;;;5061318;28;20856;-76
2022/05/07 07:41:37;;;;;;;45.10;32.40;;;18.50;24.40;;;;;;5055363;28;20394;-76
2022/05/07 07:44:02;;;;;;;45.33;33.65;;;18.60;24.30;;;;;;5055149;28;20394;-76
2022/05/07 07:49:12;;;;;;;47.05;33.05;;;19.00;22.50;;;;;;5050055;28;20769;-76
2022/05/07 07:51:38;;;;;;;44.27;28.97;;;19.00;22.70;;;;;;5050738;28;20492;-75
2022/05/07 07:54:07;;;;;;;43.57;27.60;;;19.10;21.20;;;;;;5106125;22;20426;-73
2022/05/07 07:56:32;;;;;;;41.13;26.95;;;19.20;20.00;;;;;;5110950;28;20457;-73
2022/05/07 07:58:58;;;;;;;38.35;25.00;;;19.30;20.20;;;;;;5102373;28;20388;-72
2022/05/07 08:01:24;;;;;;;44.50;27.73;;;19.50;19.80;;;;;;5102081;28;20393;-72
2022/05/07 08:03:49;;;;;;;40.17;26.40;;;19.50;19.10;;;;;;5105014;28;20396;-73
2022/05/07 08:06:15;;;;;;;39.55;26.40;;;19.80;18.70;;;;;;5104671;28;20388;-72
2022/05/07 08:11:46;;;;;;;30.80;21.85;;;20.00;17.70;;;;;;5096045;28;20431;-72
2022/05/07 08:14:15;;;;;;;37.90;23.95;;;20.10;17.50;;;;;;5088977;28;20405;-72
2022/05/07 08:16:42;;;;;;;40.45;23.92;;;20.10;17.40;;;;;;5095430;28;20402;-72
2022/05/07 08:19:08;;;;;;;34.67;23.08;;;20.20;17.60;;;;;;5090747;28;20399;-72
2022/05/07 08:21:34;;;;;;;37.90;24.13;;;20.30;17.30;;;;;;5091914;28;20529;-73
2022/05/07 08:23:59;;;;;;;37.97;24.25;;;20.30;16.90;;;;;;5099448;28;20488;-72
2022/05/07 08:26:25;;;;;;;40.67;26.10;;;20.40;16.80;;;;;;5093356;28;20394;-72
2022/05/07 08:28:52;;;;;;;44.17;30.13;;;20.40;17.00;;;;;;5094222;28;20397;-72
2022/05/07 08:31:21;;;;;;;44.60;28.33;;;20.30;17.20;;;;;;5081942;28;20415;-71
2022/05/07 08:33:47;;;;;;;43.70;28.75;;;20.10;17.40;;;;;;5095861;28;20394;-72
2022/05/07 08:36:13;;;;;;;47.97;28.53;;;20.40;17.20;;;;;;5062490;28;20431;-71
2022/05/07 08:38:39;;;;;;;38.90;24.87;;;20.40;17.10;;;;;;5097001;28;20477;-71
2022/05/07 08:41:05;;;;;;;38.33;23.42;;;20.10;17.30;;;;;;5090667;28;20383;-71
2022/05/07 08:43:39;;;;;;;37.37;23.47;;;20.10;17.70;;;;;;5099102;28;20435;-70
2022/05/07 08:46:14;;;;;;;38.25;23.05;;;20.20;18.20;;;;;;5091288;28;20396;-75
2022/05/07 08:48:41;;;;;;;41.22;23.98;;;20.30;17.50;;;;;;5093139;28;20412;-73
2022/05/07 08:51:06;;;;;;;35.90;22.80;;;20.30;17.50;;;;;;5095340;28;20396;-73
2022/05/07 08:53:33;;;;;;;36.80;22.92;;;20.20;17.20;;;;;;5097103;28;20417;-74
2022/05/07 08:55:59;;;;;;;38.88;23.27;;;20.30;17.70;;;;;;5090478;28;20497;-71
2022/05/07 08:58:24;;;;;;;38.13;21.90;;;20.30;17.60;;;;;;5093631;28;20493;-73
2022/05/07 09:00:50;;;;;;;35.67;22.40;;;20.30;17.50;;;;;;5083866;28;20390;-73
2022/05/07 09:03:17;;;;;;;39.95;22.75;;;20.50;17.50;;;;;;5088301;28;20378;-72
2022/05/07 09:05:44;;;;;;;40.20;22.52;;;20.60;17.20;;;;;;5093882;28;20389;-72
2022/05/07 09:08:12;;;;;;;37.60;21.40;;;20.80;17.70;;;;;;5096071;28;20384;-70
2022/05/07 09:10:39;;;;;;;40.05;20.25;;;21.00;17.30;;;;;;5106635;28;20388;-71
2022/05/07 09:13:15;;;;;;;35.90;19.95;;;21.20;16.10;;;;;;5095871;28;20418;-71
2022/05/07 09:15:56;;;;;;;41.67;21.83;;;21.60;16.00;;;;;;5091179;28;20484;-72
2022/05/07 09:18:23;;;;;;;31.33;19.00;;;21.60;15.60;;;;;;5088671;28;20408;-71
2022/05/07 09:21:19;;;;;;;30.77;19.10;;;21.50;15.30;;;;;;5095285;28;20397;-70
2022/05/07 09:23:45;;;;;;;32.75;19.27;;;21.50;14.90;;;;;;5075696;28;20424;-72
2022/05/07 09:26:26;;;;;;;31.08;19.25;;;21.40;15.00;;;;;;5093050;28;20400;-72
2022/05/07 09:28:51;;;;;;;31.25;17.88;;;21.40;15.60;;;;;;5094014;28;20987;-71
2022/05/07 09:31:27;;;;;;;36.42;19.08;;;21.50;15.70;;;;;;5097592;28;20476;-72
2022/05/07 09:33:55;;;;;;;29.73;17.08;;;21.50;15.60;;;;;;5100134;28;20394;-71
2022/05/07 09:36:23;;;;;;;31.85;17.60;;;21.60;15.00;;;;;;5094879;28;20410;-72
2022/05/07 09:39:03;;;;;;;41.20;19.37;;;21.50;15.40;;;;;;5096633;28;20532;-72
2022/05/07 09:41:29;;;;;;;34.27;19.30;;;21.50;15.50;;;;;;5095947;28;20453;-71
2022/05/07 09:43:55;;;;;;;38.13;18.73;;;21.60;15.10;;;;;;5077760;28;20519;-72
2022/05/07 09:46:21;;;;;;;34.08;18.73;;;21.90;15.30;;;;;;5091549;28;20893;-72
2022/05/07 09:48:47;;;;;;;32.30;18.63;;;21.90;14.10;;;;;;5089731;28;20404;-71
2022/05/07 09:51:12;;;;;;;37.40;20.40;;;21.80;14.40;;;;;;5094728;28;20400;-74
2022/05/07 09:59:09;;;;;;;35.10;18.67;;;21.90;14.10;;;;;;5092274;28;20496;-72
2022/05/07 10:02:04;;;;;;;36.72;20.27;;;21.80;14.30;;;;;;5092143;28;20390;-73
2022/05/07 10:04:48;;;;;;;35.95;19.92;;;21.70;14.70;;;;;;5088893;28;20405;-72
2022/05/07 10:07:27;;;;;;;38.35;19.80;;;21.80;14.50;;;;;;5086444;28;20390;-72
2022/05/07 10:10:15;;;;;;;40.05;18.90;;;22.20;14.20;;;;;;5092066;28;20396;-73
2022/05/07 10:12:47;;;;;;;34.80;18.20;;;22.50;13.80;;;;;;5088874;28;20398;-73
2022/05/07 10:15:19;;;;;;;37.00;18.15;;;22.20;14.10;;;;;;5089304;28;20425;-73
2022/05/07 10:17:45;;;;;;;36.55;18.75;;;22.10;14.30;;;;;;5091745;28;20440;-73
2022/05/07 10:20:13;;;;;;;36.00;19.05;;;22.20;13.90;;;;;;5092679;28;20393;-73
2022/05/07 10:22:39;;;;;;;31.15;18.42;;;22.20;13.00;;;;;;5102941;28;20448;-74
2022/05/07 10:25:10;;;;;;;34.42;19.23;;;22.30;13.00;;;;;;5088638;28;20444;-72
2022/05/07 10:27:38;;;;;;;39.77;18.70;;;22.30;12.90;;;;;;5107530;28;20400;-74
2022/05/07 10:30:05;;;;;;;36.35;18.58;;;22.60;12.40;;;;;;5099907;28;20408;-74
2022/05/07 10:32:44;;;;;;;32.78;18.65;;;22.80;12.30;;;;;;5097680;28;20819;-72
2022/05/07 10:35:11;;;;;;;29.95;17.80;;;22.90;11.50;;;;;;5112548;28;20400;-73
2022/05/07 10:37:43;;;;;;;37.92;19.25;;;22.90;13.10;;;;;;5112299;28;20706;-73
2022/05/07 10:40:12;;;;;;;32.25;19.17;;;22.90;12.00;;;;;;5112131;28;20399;-74
2022/05/07 10:42:41;;;;;;;35.72;19.17;;;22.90;12.10;;;;;;5098449;28;20480;-74
2022/05/07 10:45:20;;;;;;;33.67;17.60;;;22.80;11.30;;;;;;5111541;28;20406;-73
2022/05/07 10:47:55;;;;;;;34.35;18.05;;;22.90;11.30;;;;;;5098096;28;20778;-72
2022/05/07 10:50:22;;;;;;;31.98;18.73;;;22.60;12.00;;;;;;5102582;28;20449;-73
2022/05/07 10:52:56;;;;;;;29.23;19.55;;;22.50;11.30;;;;;;5105254;28;20487;-74
2022/05/07 10:55:26;;;;;;;32.10;19.70;;;22.40;11.10;;;;;;5091436;28;20428;-74
2022/05/07 10:57:55;;;;;;;30.20;18.98;;;22.40;10.90;;;;;;5104055;28;20456;-77
2022/05/07 11:00:22;;;;;;;31.27;18.98;;;22.60;10.90;;;;;;5103024;28;20764;-73
2022/05/07 11:02:49;;;;;;;28.48;17.50;;;23.10;10.20;;;;;;5102360;28;20872;-73
2022/05/07 11:05:16;;;;;;;33.53;20.60;;;23.30;10.10;;;;;;5096802;28;20487;-75
2022/05/07 11:07:43;;;;;;;29.27;17.02;;;23.30;9.70;;;;;;5096200;28;20728;-74
2022/05/07 11:10:10;;;;;;;31.95;19.05;;;23.50;10.50;;;;;;5099978;28;20523;-74
2022/05/07 11:12:38;;;;;;;30.40;18.30;;;23.70;9.50;;;;;;5100957;28;20391;-73
2022/05/07 11:15:06;;;;;;;35.07;19.87;;;23.70;9.90;;;;;;5105663;28;20399;-73
2022/05/07 11:17:34;;;;;;;26.52;17.67;;;23.50;10.30;;;;;;5105560;28;20760;-74
2022/05/07 11:20:00;;;;;;;27.73;18.25;;;23.90;9.70;;;;;;5105596;28;20682;-75
2022/05/07 11:22:30;;;;;;;29.50;18.58;;;24.30;9.30;;;;;;5092689;28;20392;-73
2022/05/07 11:24:58;;;;;;;28.40;18.00;;;24.40;8.10;;;;;;5092562;28;20462;-74
2022/05/07 11:27:26;;;;;;;31.33;18.97;;;24.60;8.10;;;;;;5093944;28;20386;-74
2022/05/07 11:29:53;;;;;;;30.05;18.85;;;24.70;7.80;;;;;;5095501;28;20386;-75
2022/05/07 11:32:22;;;;;;;28.35;17.60;;;24.30;8.00;;;;;;5096121;28;20390;-73
2022/05/07 11:34:53;;;;;;;25.20;16.03;;;24.00;8.30;;;;;;5097387;28;20404;-75
2022/05/07 11:37:20;;;;;;;25.00;15.45;;;24.20;8.40;;;;;;5091574;28;20469;-73
2022/05/07 11:39:52;;;;;;;26.48;15.35;;;24.40;9.10;;;;;;5076896;28;20394;-73
2022/05/07 11:42:44;;;;;;;25.50;16.13;;;24.60;8.20;;;;;;5091224;28;20426;-73
2022/05/07 11:45:26;;;;;;;26.92;16.67;;;24.70;8.60;;;;;;5096400;28;20793;-74
2022/05/07 11:48:04;;;;;;;27.60;16.40;;;25.10;7.30;;;;;;5092332;28;20402;-73
2022/05/07 11:50:34;;;;;;;25.27;16.65;;;25.20;6.70;;;;;;5094086;28;20398;-73
2022/05/07 11:53:13;;;;;;;24.73;17.38;;;25.20;6.80;;;;;;5094725;28;20417;-73
2022/05/07 11:55:40;;;;;;;21.30;15.70;;;25.20;6.20;;;;;;5078619;28;20875;-73
2022/05/07 11:58:16;;;;;;;28.83;18.10;;;25.20;6.80;;;;;;5102003;28;20390;-73
2022/05/07 12:00:47;;;;;;;29.17;17.95;;;25.30;6.10;;;;;;5100205;28;20386;-73
2022/05/07 12:03:16;;;;;;;23.08;14.85;;;25.50;6.00;;;;;;5100431;28;20698;-72
2022/05/07 12:05:48;;;;;;;26.02;17.85;;;25.50;5.40;;;;;;5096271;28;20394;-73
2022/05/07 12:08:19;;;;;;;24.50;16.65;;;25.50;6.00;;;;;;5097498;28;20392;-73
2022/05/07 12:10:53;;;;;;;29.75;17.13;;;25.80;5.80;;;;;;5093557;28;20473;-73
2022/05/07 12:13:21;;;;;;;30.63;17.70;;;26.10;5.60;;;;;;5077692;28;20850;-72
2022/05/07 12:18:36;;;;;;;27.45;17.80;;;24.60;7.20;;;;;;5092896;28;20389;-74
2022/05/07 12:21:02;;;;;;;26.40;16.40;;;24.50;7.80;;;;;;5094493;28;20516;-74
2022/05/07 12:31:40;;;;;;;31.15;18.38;;;24.20;8.20;;;;;;5072295;28;20433;-74
2022/05/07 12:34:06;;;;;;;24.17;15.55;;;24.40;8.00;;;;;;5071855;28;20384;-74
2022/05/07 12:36:32;;;;;;;24.80;15.35;;;24.30;8.00;;;;;;5071442;28;20430;-75
2022/05/07 12:38:59;;;;;;;25.10;14.45;;;24.50;8.10;;;;;;5071912;28;20915;-73
2022/05/07 12:41:26;;;;;;;25.83;16.37;;;24.40;7.40;;;;;;5071574;28;20388;-73
2022/05/07 12:43:53;;;;;;;24.88;15.27;;;24.00;8.10;;;;;;5053734;28;20403;-74
2022/05/07 12:46:19;;;;;;;21.67;13.52;;;23.70;8.50;;;;;;5072276;28;20387;-74
2022/05/07 12:48:45;;;;;;;22.83;14.10;;;23.50;8.70;;;;;;5071818;28;20971;-74
2022/05/07 12:51:11;;;;;;;21.52;13.43;;;23.50;9.40;;;;;;5071751;28;20392;-75
2022/05/07 12:53:36;;;;;;;22.02;14.40;;;23.50;9.20;;;;;;5072680;28;20398;-75
2022/05/07 12:56:03;;;;;;;21.90;14.50;;;23.60;9.30;;;;;;5071549;28;20399;-74
2022/05/07 12:58:29;;;;;;;26.92;15.02;;;23.90;8.80;;;;;;5072035;28;20380;-74
2022/05/07 13:00:55;;;;;;;25.10;15.80;;;23.90;8.50;;;;;;5071328;28;20384;-74
2022/05/07 13:03:21;;;;;;;22.50;15.77;;;23.90;8.90;;;;;;5071708;28;20395;-74
2022/05/07 13:05:47;;;;;;;22.55;16.48;;;23.70;9.10;;;;;;5071282;28;20391;-73